Time;durP1;ratioP1;P1;durP2;ratioP2;P2;SDS_P1;SDS_P2;PMS_P1;PMS_P2;Temp;Humidity;BMP_temperature;BMP_pressure;BME280_temperature;BME280_humidity;BME280_pressure;Samples;Min_cycle;Max_cycle;Signal;HPM_P1;HPM_P2
2022/04/28 00:00:11;;;;;;;317.65;122.93;;;;;;;15.23;66.41;99622.78;345028;28;801;-76
2022/04/28 00:00:21;;;;;;;317.95;123.55;;;;;;;15.23;66.45;99622.78;343057;28;1540;-76
2022/04/28 00:00:32;;;;;;;317.52;125.50;;;;;;;15.21;66.53;99620.22;342807;28;1277;-75
2022/04/28 00:00:42;;;;;;;320.03;127.10;;;;;;;15.20;66.60;99618.53;343560;28;722;-76
2022/04/28 00:00:53;;;;;;;318.80;126.05;;;;;;;15.22;66.48;99621.06;342243;28;1236;-76
2022/04/28 00:01:04;;;;;;;318.20;124.90;;;;;;;15.25;66.30;99618.25;343182;28;1583;-76
2022/04/28 00:01:14;;;;;;;316.17;123.07;;;;;;;15.19;66.60;99610.72;342527;28;1235;-76
2022/04/28 00:01:25;;;;;;;315.25;123.05;;;;;;;15.28;65.98;99621.56;342383;28;903;-76
2022/04/28 00:01:35;;;;;;;314.30;124.27;;;;;;;15.29;66.26;99622.41;343541;28;1299;-76
2022/04/28 00:01:45;;;;;;;312.40;123.28;;;;;;;15.25;66.43;99621.75;342007;28;1731;-76
2022/04/28 00:01:56;;;;;;;311.90;122.50;;;;;;;15.24;66.34;99621.84;343807;28;1832;-77
2022/04/28 00:02:06;;;;;;;314.65;122.68;;;;;;;15.25;66.51;99620.91;344333;28;797;-76
2022/04/28 00:02:17;;;;;;;316.17;124.63;;;;;;;15.29;66.39;99622.41;343593;28;1349;-76
2022/04/28 00:02:28;;;;;;;317.35;125.00;;;;;;;15.31;66.37;99620.53;343406;28;1632;-76
2022/04/28 00:02:39;;;;;;;317.10;123.80;;;;;;;15.30;66.14;99619.69;342291;28;1067;-76
2022/04/28 00:02:49;;;;;;;319.30;123.55;;;;;;;15.35;66.11;99627.31;341048;29;868;-76
2022/04/28 00:03:00;;;;;;;316.48;124.15;;;;;;;15.35;66.12;99627.31;343620;28;1244;-76
2022/04/28 00:03:11;;;;;;;319.75;125.57;;;;;;;15.36;66.09;99623.75;342128;28;1345;-76
2022/04/28 00:03:21;;;;;;;320.43;126.00;;;;;;;15.39;66.15;99620.91;346358;28;1088;-76
2022/04/28 00:03:32;;;;;;;319.33;124.47;;;;;;;15.42;65.99;99628.66;344694;28;1313;-76
2022/04/28 00:03:42;;;;;;;315.45;124.70;;;;;;;15.44;65.80;99626.78;343522;28;829;-76
2022/04/28 00:03:52;;;;;;;314.00;124.83;;;;;;;15.46;66.01;99630.16;342130;28;859;-76
2022/04/28 00:04:03;;;;;;;316.77;124.78;;;;;;;15.46;65.58;99624.88;343380;28;1291;-77
2022/04/28 00:04:13;;;;;;;315.45;123.82;;;;;;;15.52;65.77;99623.66;343316;28;1456;-77
2022/04/28 00:04:24;;;;;;;316.80;124.77;;;;;;;15.53;65.57;99628.84;343380;28;1972;-77
2022/04/28 00:04:34;;;;;;;317.53;127.23;;;;;;;15.55;65.57;99624.34;339624;29;829;-77
2022/04/28 00:04:45;;;;;;;318.27;126.88;;;;;;;15.58;65.99;99629.44;346190;28;1705;-77
2022/04/28 00:04:56;;;;;;;316.55;125.72;;;;;;;15.60;65.65;99626.69;344414;28;1770;-77
2022/04/28 00:05:07;;;;;;;316.23;126.73;;;;;;;15.64;65.26;99628.19;342887;28;1513;-76
2022/04/28 00:05:17;;;;;;;314.80;127.15;;;;;;;15.68;65.45;99626.22;343362;28;1684;-76
2022/04/28 00:05:28;;;;;;;316.05;129.00;;;;;;;15.70;65.33;99622.56;343665;28;734;-76
2022/04/28 00:05:38;;;;;;;317.88;129.23;;;;;;;15.72;64.64;99622.47;344956;28;846;-76
2022/04/28 00:05:49;;;;;;;317.60;129.43;;;;;;;15.73;65.07;99622.38;342279;28;1188;-76
2022/04/28 00:05:59;;;;;;;316.25;126.93;;;;;;;15.76;64.98;99627.44;342003;28;1509;-76
2022/04/28 00:06:10;;;;;;;313.80;126.93;;;;;;;15.77;65.13;99623.03;341356;28;1168;-76
2022/04/28 00:06:20;;;;;;;313.80;126.00;;;;;;;15.76;65.11;99616.06;343146;28;829;-76
2022/04/28 00:06:31;;;;;;;313.33;127.47;;;;;;;15.80;64.84;99628.13;342259;28;829;-77
2022/04/28 00:06:41;;;;;;;314.95;125.35;;;;;;;15.81;64.83;99628.03;343498;28;1364;-77
2022/04/28 00:06:51;;;;;;;316.47;126.73;;;;;;;15.81;64.97;99628.03;342211;28;1328;-77
2022/04/28 00:07:02;;;;;;;316.23;125.90;;;;;;;15.82;64.68;99628.88;342333;28;805;-77
2022/04/28 00:07:13;;;;;;;316.23;128.25;;;;;;;15.79;64.19;99621.13;344851;28;1275;-77
2022/04/28 00:07:23;;;;;;;312.65;126.82;;;;;;;15.71;64.58;99618.97;344814;28;1326;-76
2022/04/28 00:07:34;;;;;;;312.90;126.83;;;;;;;15.65;64.81;99627.25;343698;28;1170;-77
2022/04/28 00:07:44;;;;;;;313.50;126.13;;;;;;;15.62;64.65;99630.09;339278;28;4975;-76
2022/04/28 00:07:54;;;;;;;315.77;126.47;;;;;;;15.59;64.95;99625.88;345893;28;1846;-77
2022/04/28 00:08:05;;;;;;;320.20;129.88;;;;;;;15.54;64.86;99622.63;343497;28;1366;-77
2022/04/28 00:08:16;;;;;;;321.45;130.07;;;;;;;15.51;65.06;99617.53;341784;28;2935;-77
2022/04/28 00:08:26;;;;;;;320.93;131.13;;;;;;;15.41;65.40;99620.81;342180;28;1336;-77
2022/04/28 00:08:37;;;;;;;314.08;127.53;;;;;;;15.37;65.40;99617.53;343558;28;845;-77
2022/04/28 00:08:47;;;;;;;315.43;127.87;;;;;;;15.36;65.55;99625.53;342473;28;2145;-77
2022/04/28 00:08:58;;;;;;;316.10;126.80;;;;;;;15.27;65.69;99619.00;342217;28;1374;-77
2022/04/28 00:09:08;;;;;;;318.77;126.03;;;;;;;15.28;65.88;99626.84;343674;28;1331;-77
2022/04/28 00:09:19;;;;;;;317.27;124.38;;;;;;;15.28;65.80;99620.72;344956;28;797;-77
2022/04/28 00:09:29;;;;;;;316.07;124.07;;;;;;;15.22;65.81;99621.06;344083;28;1511;-77
2022/04/28 00:09:39;;;;;;;315.08;124.00;;;;;;;15.24;66.12;99616.56;343985;28;1694;-77
2022/04/28 00:09:50;;;;;;;314.23;124.13;;;;;;;15.29;65.67;99619.78;342908;28;1707;-77
2022/04/28 00:10:00;;;;;;;316.45;124.93;;;;;;;15.29;65.94;99617.13;344218;28;856;-77
2022/04/28 00:10:11;;;;;;;314.53;125.30;;;;;;;15.32;65.65;99616.94;343511;28;825;-77
2022/04/28 00:10:21;;;;;;;312.20;124.13;;;;;;;15.34;65.86;99619.50;344012;28;861;-76
2022/04/28 00:10:32;;;;;;;308.93;124.33;;;;;;;15.39;65.69;99620.91;345008;28;1297;-76
2022/04/28 00:10:42;;;;;;;308.50;123.88;;;;;;;15.43;65.60;99619.78;344844;28;1213;-76
2022/04/28 00:10:52;;;;;;;310.90;125.53;;;;;;;15.47;65.48;99621.31;346217;28;1198;-76
2022/04/28 00:11:03;;;;;;;313.70;128.07;;;;;;;15.51;65.44;99622.81;341992;28;1615;-76
2022/04/28 00:11:13;;;;;;;314.73;129.20;;;;;;;15.54;65.21;99622.63;343577;28;1525;-76
2022/04/28 00:11:24;;;;;;;314.50;129.17;;;;;;;15.50;65.21;99615.84;343520;28;1490;-76
2022/04/28 00:11:35;;;;;;;314.20;126.07;;;;;;;15.46;65.23;99624.88;341442;28;1236;-76
2022/04/28 00:11:45;;;;;;;313.42;124.40;;;;;;;15.48;65.33;99622.16;343622;28;1341;-76
2022/04/28 00:11:56;;;;;;;314.80;125.83;;;;;;;15.50;65.39;99621.13;345426;28;1900;-76
2022/04/28 00:12:08;;;;;;;311.80;124.75;;;;;;;15.53;65.20;99617.44;344835;28;1337;-76
2022/04/28 00:12:18;;;;;;;312.30;123.93;;;;;;;15.51;65.21;99621.97;344870;28;1336;-77
2022/04/28 00:12:29;;;;;;;312.02;123.97;;;;;;;15.45;65.28;99623.19;343304;28;1198;-77
2022/04/28 00:12:39;;;;;;;315.20;125.70;;;;;;;15.43;65.47;99621.59;344966;28;1464;-77
2022/04/28 00:12:50;;;;;;;313.50;125.50;;;;;;;15.38;65.52;99616.59;343498;28;1240;-78
2022/04/28 00:13:00;;;;;;;314.10;125.93;;;;;;;15.36;65.63;99623.75;343586;28;1218;-76
2022/04/28 00:13:13;;;;;;;314.73;125.70;;;;;;;15.37;65.50;99625.44;343054;28;852;-76
2022/04/28 00:13:23;;;;;;;313.75;125.40;;;;;;;15.38;65.75;99618.38;343573;28;1016;-76
2022/04/28 00:13:33;;;;;;;310.38;123.53;;;;;;;15.30;65.81;99621.47;343607;28;1224;-76
2022/04/28 00:13:44;;;;;;;311.77;123.20;;;;;;;15.33;66.05;99621.28;342253;28;800;-76
2022/04/28 00:13:54;;;;;;;313.37;124.37;;;;;;;15.40;65.63;99624.41;342307;28;1199;-76
2022/04/28 00:14:07;;;;;;;317.05;126.70;;;;;;;15.41;65.58;99626.94;344859;28;1211;-76
2022/04/28 00:14:18;;;;;;;316.38;126.25;;;;;;;15.39;65.26;99620.91;342250;28;857;-76
2022/04/28 00:14:30;;;;;;;314.50;123.55;;;;;;;15.37;65.75;99625.44;343589;28;908;-76
2022/04/28 00:14:43;;;;;;;315.80;125.07;;;;;;;15.39;65.58;99623.56;343717;28;1695;-76
2022/04/28 00:14:54;;;;;;;316.52;125.53;;;;;;;15.45;65.47;99627.63;343939;28;869;-76
2022/04/28 00:15:04;;;;;;;314.90;124.63;;;;;;;15.48;65.29;99625.66;344740;28;1639;-76
2022/04/28 00:15:15;;;;;;;312.67;122.80;;;;;;;15.50;65.53;99621.13;343156;28;1613;-76
2022/04/28 00:15:25;;;;;;;313.23;123.03;;;;;;;15.42;65.32;99618.09;344993;28;821;-75
2022/04/28 00:15:36;;;;;;;313.97;124.17;;;;;;;15.48;65.33;99632.72;344061;28;965;-76
2022/04/28 00:15:46;;;;;;;313.92;125.40;;;;;;;15.52;65.39;99629.78;343896;28;933;-76
2022/04/28 00:15:56;;;;;;;314.07;127.27;;;;;;;15.54;65.18;99625.28;343609;28;1188;-76
2022/04/28 00:16:07;;;;;;;316.92;127.60;;;;;;;15.54;65.20;99625.28;343129;28;1552;-76
2022/04/28 00:16:17;;;;;;;316.50;127.80;;;;;;;15.52;65.10;99624.50;342582;28;1319;-76
2022/04/28 00:16:28;;;;;;;316.30;126.68;;;;;;;15.43;65.17;99618.94;342352;28;786;-76
2022/04/28 00:16:38;;;;;;;313.47;125.30;;;;;;;15.33;65.30;99621.28;342163;28;1397;-76
2022/04/28 00:16:48;;;;;;;314.83;125.67;;;;;;;15.30;65.42;99629.38;340914;28;3611;-76
2022/04/28 00:16:59;;;;;;;314.02;125.53;;;;;;;15.27;65.89;99624.28;338126;29;3091;-76
2022/04/28 00:17:09;;;;;;;314.63;125.03;;;;;;;15.27;65.86;99622.50;342917;28;1946;-77
2022/04/28 00:17:20;;;;;;;318.42;126.28;;;;;;;15.25;65.77;99623.53;343677;28;1922;-77
2022/04/28 00:17:30;;;;;;;317.75;125.18;;;;;;;15.23;65.82;99625.41;342816;28;5273;-76
2022/04/28 00:17:41;;;;;;;315.97;124.63;;;;;;;15.22;65.81;99627.19;342412;28;1315;-76
2022/04/28 00:17:51;;;;;;;310.20;122.60;;;;;;;15.17;65.99;99623.13;343612;28;1981;-77
2022/04/28 00:18:02;;;;;;;309.33;122.72;;;;;;;15.09;66.15;99625.41;343791;28;868;-77
2022/04/28 00:18:12;;;;;;;308.40;121.87;;;;;;;15.08;66.21;99626.34;342956;28;1159;-76
2022/04/28 00:18:22;;;;;;;310.95;122.90;;;;;;;15.09;66.43;99625.41;345384;28;1176;-75
2022/04/28 00:18:33;;;;;;;313.17;122.67;;;;;;;15.10;66.35;99625.31;344980;28;883;-76
2022/04/28 00:18:43;;;;;;;314.98;124.50;;;;;;;15.11;66.29;99618.25;345469;28;1620;-76
2022/04/28 00:18:54;;;;;;;315.43;124.30;;;;;;;15.08;66.31;99607.91;342128;28;1850;-76
2022/04/28 00:19:04;;;;;;;313.23;122.70;;;;;;;15.12;66.35;99619.97;343778;28;813;-76
2022/04/28 00:19:15;;;;;;;314.47;122.57;;;;;;;15.13;66.50;99622.50;342319;28;1118;-76
2022/04/28 00:19:25;;;;;;;313.98;120.25;;;;;;;15.15;66.82;99622.41;343456;28;2031;-76
2022/04/28 00:19:36;;;;;;;316.17;121.57;;;;;;;15.14;66.53;99621.56;344796;28;1352;-76
2022/04/28 00:19:46;;;;;;;312.67;120.15;;;;;;;15.16;66.25;99621.47;345980;28;813;-76
2022/04/28 00:19:56;;;;;;;314.20;122.47;;;;;;;15.16;66.30;99621.47;343706;28;1287;-76
2022/04/28 00:20:08;;;;;;;313.13;121.23;;;;;;;15.12;66.41;99622.59;342340;28;797;-76
2022/04/28 00:20:18;;;;;;;314.17;121.88;;;;;;;15.07;66.32;99622.00;345008;28;1208;-76
2022/04/28 00:20:28;;;;;;;310.80;120.20;;;;;;;15.04;66.67;99630.09;345065;28;1343;-76
2022/04/28 00:20:39;;;;;;;311.00;120.40;;;;;;;15.02;66.71;99624.06;343735;28;1344;-76
2022/04/28 00:20:49;;;;;;;310.67;119.63;;;;;;;15.05;66.42;99626.53;345151;28;1618;-76
2022/04/28 00:21:00;;;;;;;313.10;121.05;;;;;;;15.04;66.84;99623.03;343903;28;1580;-76
2022/04/28 00:21:10;;;;;;;314.93;122.60;;;;;;;15.03;66.64;99623.13;343017;28;1968;-76
2022/04/28 00:21:20;;;;;;;317.53;125.30;;;;;;;15.01;66.73;99617.94;343131;28;1187;-76
2022/04/28 00:21:31;;;;;;;316.80;124.50;;;;;;;15.00;66.82;99624.16;343525;28;1249;-76
2022/04/28 00:21:41;;;;;;;317.07;124.70;;;;;;;15.04;66.77;99622.19;343892;28;801;-76
2022/04/28 00:21:52;;;;;;;313.75;121.85;;;;;;;15.07;66.61;99622.00;346329;28;1179;-75
2022/04/28 00:22:02;;;;;;;313.20;122.47;;;;;;;15.09;66.46;99625.41;343710;28;1291;-75
2022/04/28 00:22:13;;;;;;;312.27;121.88;;;;;;;15.08;66.44;99627.19;342315;28;1293;-76
2022/04/28 00:22:24;;;;;;;315.02;122.00;;;;;;;15.10;66.50;99616.56;345048;28;1497;-76
2022/04/28 00:22:35;;;;;;;315.55;122.25;;;;;;;15.10;66.32;99625.31;343431;28;837;-76
2022/04/28 00:22:45;;;;;;;316.47;124.57;;;;;;;15.14;66.36;99618.06;343756;28;928;-77
2022/04/28 00:22:56;;;;;;;315.90;126.07;;;;;;;15.17;66.60;99618.72;342483;28;1310;-78
2022/04/28 00:23:06;;;;;;;316.43;126.83;;;;;;;15.20;66.26;99628.22;343648;28;881;-77
2022/04/28 00:23:16;;;;;;;314.27;123.38;;;;;;;15.20;66.10;99612.41;344879;28;1290;-77
2022/04/28 00:23:27;;;;;;;313.73;122.37;;;;;;;15.20;66.13;99618.53;343938;28;1319;-77
2022/04/28 00:23:37;;;;;;;314.92;122.05;;;;;;;15.19;66.22;99616.84;345490;28;833;-77
2022/04/28 00:23:49;;;;;;;316.07;123.63;;;;;;;15.20;65.86;99618.53;343849;28;1196;-76
2022/04/28 00:24:00;;;;;;;316.33;124.65;;;;;;;15.25;65.92;99615.63;343790;28;959;-75
2022/04/28 00:24:11;;;;;;;315.73;124.63;;;;;;;15.28;66.06;99626.84;343678;28;1283;-76
2022/04/28 00:24:21;;;;;;;316.42;123.13;;;;;;;15.24;65.82;99625.31;344405;28;1969;-76
2022/04/28 00:24:31;;;;;;;316.27;122.70;;;;;;;15.22;65.72;99618.44;343575;28;1345;-76
2022/04/28 00:24:42;;;;;;;315.00;120.80;;;;;;;15.19;66.23;99621.25;343998;28;916;-75
2022/04/28 00:24:52;;;;;;;316.17;121.80;;;;;;;15.15;65.91;99617.13;343523;28;797;-76
2022/04/28 00:25:03;;;;;;;319.40;122.57;;;;;;;15.11;66.41;99619.09;343866;28;857;-75
2022/04/28 00:25:14;;;;;;;326.70;125.43;;;;;;;15.11;66.31;99623.53;342297;28;1433;-77
2022/04/28 00:25:24;;;;;;;324.03;122.33;;;;;;;15.10;66.41;99624.47;343550;28;1896;-76
2022/04/28 00:25:35;;;;;;;324.75;122.38;;;;;;;15.10;66.37;99624.47;343322;28;1659;-76
2022/04/28 00:25:45;;;;;;;316.00;119.60;;;;;;;15.11;66.50;99621.75;343641;28;825;-76
2022/04/28 00:25:55;;;;;;;317.13;124.10;;;;;;;15.08;66.54;99614.00;345148;28;1188;-76
2022/04/28 00:26:06;;;;;;;316.38;126.03;;;;;;;15.13;66.39;99616.38;342507;28;3506;-76
2022/04/28 00:26:16;;;;;;;317.53;126.50;;;;;;;15.10;66.29;99616.56;343474;28;3043;-76
2022/04/28 00:26:26;;;;;;;318.50;125.00;;;;;;;15.11;66.32;99620.91;341322;28;1204;-76
2022/04/28 00:26:37;;;;;;;316.33;121.57;;;;;;;15.05;66.51;99623.88;341738;28;2970;-77
2022/04/28 00:26:47;;;;;;;315.88;122.45;;;;;;;15.09;66.46;99625.41;346376;28;1299;-77
2022/04/28 00:26:58;;;;;;;312.07;121.50;;;;;;;15.08;66.20;99623.72;343578;28;853;-77
2022/04/28 00:27:08;;;;;;;312.90;121.73;;;;;;;15.12;66.22;99620.81;343078;28;790;-77
2022/04/28 00:27:19;;;;;;;310.52;120.78;;;;;;;15.15;66.31;99620.63;344852;28;1381;-77
2022/04/28 00:27:29;;;;;;;310.93;122.87;;;;;;;15.18;66.38;99617.78;343363;28;751;-77
2022/04/28 00:27:40;;;;;;;309.67;122.20;;;;;;;15.19;65.99;99616.84;341003;29;822;-77
2022/04/28 00:27:50;;;;;;;310.05;120.97;;;;;;;15.16;65.97;99624.91;342053;28;1229;-77
2022/04/28 00:28:01;;;;;;;311.90;121.53;;;;;;;15.08;66.45;99615.81;343597;28;1357;-77
2022/04/28 00:28:11;;;;;;;311.67;121.68;;;;;;;15.05;66.14;99619.47;343342;28;1387;-77
2022/04/28 00:28:22;;;;;;;313.67;123.13;;;;;;;15.03;66.58;99623.97;344871;28;1234;-77
2022/04/28 00:28:32;;;;;;;313.30;122.28;;;;;;;15.00;66.60;99625.94;343719;28;1110;-77
2022/04/28 00:28:42;;;;;;;314.37;123.57;;;;;;;15.01;66.93;99622.38;342844;28;830;-78
2022/04/28 00:28:53;;;;;;;313.00;122.80;;;;;;;15.02;66.69;99624.06;342560;28;743;-77
2022/04/28 00:29:03;;;;;;;312.80;122.37;;;;;;;15.04;66.72;99617.78;342693;28;1519;-77
2022/04/28 00:29:14;;;;;;;312.40;121.90;;;;;;;15.09;66.70;99614.88;342690;28;1227;-76
2022/04/28 00:29:24;;;;;;;314.55;122.97;;;;;;;15.08;66.58;99616.66;341925;28;1350;-76
2022/04/28 00:29:34;;;;;;;316.40;123.63;;;;;;;15.08;66.24;99626.34;344949;28;1204;-76
2022/04/28 00:29:45;;;;;;;314.00;120.40;;;;;;;15.06;66.93;99620.31;343548;28;1413;-77
2022/04/28 00:29:56;;;;;;;310.77;118.95;;;;;;;15.06;66.61;99620.31;344877;28;821;-77
2022/04/28 00:30:08;;;;;;;310.47;119.57;;;;;;;15.06;66.54;99618.53;343937;28;1342;-77
2022/04/28 00:30:18;;;;;;;312.85;122.82;;;;;;;15.06;66.60;99625.59;343696;28;770;-77
2022/04/28 00:30:29;;;;;;;313.70;122.85;;;;;;;15.01;66.69;99619.72;343569;28;1335;-77
2022/04/28 00:30:39;;;;;;;316.43;124.43;;;;;;;14.99;66.62;99619.81;343586;28;738;-77
2022/04/28 00:30:50;;;;;;;316.63;123.32;;;;;;;14.83;66.66;99609.31;342113;28;1346;-77
2022/04/28 00:31:00;;;;;;;318.47;124.93;;;;;;;14.87;66.87;99616.13;343559;28;1691;-76
2022/04/28 00:31:10;;;;;;;315.20;123.10;;;;;;;14.86;66.79;99613.56;343051;28;810;-76
2022/04/28 00:31:21;;;;;;;313.77;123.03;;;;;;;14.88;66.74;99622.22;344036;28;1069;-77
2022/04/28 00:31:31;;;;;;;311.55;120.95;;;;;;;14.90;66.93;99615.09;344756;28;1317;-78
2022/04/28 00:31:42;;;;;;;314.20;122.80;;;;;;;14.93;67.12;99620.19;342265;28;1209;-78
2022/04/28 00:31:52;;;;;;;312.63;121.40;;;;;;;14.94;66.52;99616.59;344927;28;1243;-78
2022/04/28 00:32:03;;;;;;;312.87;121.87;;;;;;;14.89;67.06;99619.50;346200;28;1208;-78
2022/04/28 00:32:13;;;;;;;309.83;118.10;;;;;;;14.90;67.14;99620.34;345007;28;841;-78
2022/04/28 00:32:24;;;;;;;314.67;121.00;;;;;;;14.87;67.25;99615.28;344922;28;857;-77
2022/04/28 00:32:34;;;;;;;315.50;121.00;;;;;;;14.85;66.81;99612.72;345133;28;825;-77
2022/04/28 00:32:45;;;;;;;318.20;124.03;;;;;;;14.91;66.98;99617.63;343479;28;1160;-77
2022/04/28 00:32:55;;;;;;;314.52;122.03;;;;;;;14.95;66.75;99619.16;344934;28;1491;-77
2022/04/28 00:33:06;;;;;;;312.50;121.03;;;;;;;14.96;66.97;99614.72;344825;28;1392;-77
2022/04/28 00:33:16;;;;;;;312.42;120.25;;;;;;;14.98;66.85;99618.97;340933;28;1232;-77
2022/04/28 00:33:30;;;;;;;314.40;122.63;;;;;;;14.93;66.67;99607.84;342147;28;1315;-77
2022/04/28 00:33:41;;;;;;;316.58;122.55;;;;;;;14.86;67.19;99619.69;343518;28;1509;-77
2022/04/28 00:33:51;;;;;;;317.38;120.82;;;;;;;14.86;67.03;99616.19;344261;28;1657;-77
2022/04/28 00:34:03;;;;;;;320.10;121.68;;;;;;;14.86;67.06;99611.78;342372;28;826;-77
2022/04/28 00:34:13;;;;;;;318.33;122.75;;;;;;;14.89;67.09;99614.25;341946;28;1541;-77
2022/04/28 00:34:24;;;;;;;318.88;123.78;;;;;;;14.91;66.76;99620.28;342116;28;1664;-77
2022/04/28 00:34:34;;;;;;;317.70;123.10;;;;;;;14.89;66.44;99614.25;344900;28;1426;-77
2022/04/28 00:34:46;;;;;;;317.33;122.18;;;;;;;14.90;66.76;99615.94;343602;28;896;-77
2022/04/28 00:34:57;;;;;;;314.40;119.55;;;;;;;14.84;66.95;99615.44;344104;28;1315;-77
2022/04/28 00:35:07;;;;;;;314.77;119.97;;;;;;;14.84;66.70;99613.66;343424;28;1425;-77
2022/04/28 00:35:18;;;;;;;315.15;121.28;;;;;;;14.86;66.73;99613.56;340736;28;4923;-77
2022/04/28 00:35:28;;;;;;;315.58;122.47;;;;;;;14.91;66.73;99615.00;343317;28;3079;-77
2022/04/28 00:35:39;;;;;;;315.60;123.13;;;;;;;14.96;66.50;99614.72;343523;28;1544;-77
2022/04/28 00:35:49;;;;;;;316.03;123.17;;;;;;;15.02;66.63;99613.53;342843;28;2864;-77
2022/04/28 00:35:59;;;;;;;315.45;123.18;;;;;;;15.07;66.44;99616.75;343390;28;1353;-77
2022/04/28 00:36:10;;;;;;;316.63;123.43;;;;;;;15.11;66.68;99619.09;343537;28;1353;-77
2022/04/28 00:36:20;;;;;;;316.63;123.00;;;;;;;15.12;66.30;99605.00;342853;28;1379;-76
2022/04/28 00:36:31;;;;;;;317.83;123.47;;;;;;;15.18;66.23;99616.94;345099;28;897;-76
2022/04/28 00:36:41;;;;;;;316.00;121.95;;;;;;;15.17;66.11;99607.31;347623;28;1187;-75
2022/04/28 00:36:52;;;;;;;318.03;121.27;;;;;;;15.23;65.97;99620.13;346386;28;1023;-77
2022/04/28 00:37:02;;;;;;;318.50;120.15;;;;;;;15.22;66.13;99618.44;344348;28;1353;-77
2022/04/28 00:37:13;;;;;;;316.80;119.67;;;;;;;15.11;65.80;99612.97;340751;29;1168;-76
2022/04/28 00:37:24;;;;;;;316.85;121.65;;;;;;;15.12;66.18;99626.06;342224;28;1275;-76
2022/04/28 00:37:34;;;;;;;315.85;121.40;;;;;;;15.08;65.98;99621.06;342189;28;1459;-76
2022/04/28 00:37:45;;;;;;;317.07;121.60;;;;;;;15.05;66.16;99614.19;344914;28;1200;-76
2022/04/28 00:37:55;;;;;;;314.60;120.03;;;;;;;15.04;66.26;99622.19;344901;28;1263;-76
2022/04/28 00:38:05;;;;;;;317.23;122.87;;;;;;;15.04;66.18;99616.91;344831;28;1194;-76
2022/04/28 00:38:16;;;;;;;317.55;123.63;;;;;;;15.03;66.36;99616.06;347437;28;1278;-76
2022/04/28 00:38:26;;;;;;;317.87;122.77;;;;;;;14.98;66.20;99608.44;346091;28;1483;-76
2022/04/28 00:38:37;;;;;;;317.63;121.32;;;;;;;15.06;66.15;99604.50;346338;28;931;-76
2022/04/28 00:38:47;;;;;;;317.50;121.90;;;;;;;15.08;66.02;99623.72;341693;28;1530;-76
2022/04/28 00:38:58;;;;;;;317.90;123.03;;;;;;;15.08;66.13;99621.06;342060;28;1212;-76
2022/04/28 00:39:08;;;;;;;319.17;124.70;;;;;;;15.07;66.32;99622.88;342208;28;1284;-76
2022/04/28 00:39:19;;;;;;;321.02;124.47;;;;;;;15.02;66.24;99619.66;342139;28;1119;-76
2022/04/28 00:39:29;;;;;;;321.67;125.00;;;;;;;15.02;66.35;99619.66;344999;28;1225;-77
2022/04/28 00:39:40;;;;;;;318.27;123.00;;;;;;;14.96;66.42;99615.59;342243;28;821;-77
2022/04/28 00:39:50;;;;;;;316.10;122.37;;;;;;;14.94;66.27;99617.47;343586;28;842;-77
2022/04/28 00:40:01;;;;;;;316.92;121.65;;;;;;;14.92;66.78;99627.25;344812;28;1224;-77
2022/04/28 00:40:12;;;;;;;318.83;122.65;;;;;;;14.93;66.88;99623.66;343602;28;841;-77
2022/04/28 00:40:22;;;;;;;313.88;120.78;;;;;;;14.91;66.85;99627.31;342151;28;1346;-77
2022/04/28 00:40:33;;;;;;;311.60;120.33;;;;;;;14.92;66.71;99629.88;344816;28;1299;-77
2022/04/28 00:40:43;;;;;;;308.57;118.33;;;;;;;14.90;66.85;99621.22;343623;28;1199;-77
2022/04/28 00:40:54;;;;;;;312.27;120.07;;;;;;;14.87;66.97;99629.28;343313;28;1225;-77
2022/04/28 00:41:05;;;;;;;314.90;121.15;;;;;;;14.92;67.25;99621.97;344678;28;1643;-77
2022/04/28 00:41:15;;;;;;;318.67;123.45;;;;;;;14.95;66.93;99623.56;346209;28;794;-78
2022/04/28 00:41:26;;;;;;;320.00;123.07;;;;;;;14.89;66.54;99614.25;342053;28;1307;-76
2022/04/28 00:41:36;;;;;;;316.27;120.50;;;;;;;14.90;67.00;99625.63;344337;28;1349;-76
2022/04/28 00:41:47;;;;;;;316.93;120.57;;;;;;;14.93;66.69;99626.31;344838;28;1204;-77
2022/04/28 00:41:57;;;;;;;313.85;118.82;;;;;;;14.94;66.82;99628.00;341075;29;838;-76
2022/04/28 00:42:12;;;;;;;315.57;118.87;;;;;;;14.94;66.86;99625.38;344131;28;1389;-76
2022/04/28 00:42:22;;;;;;;317.23;117.50;;;;;;;14.94;66.59;99628.00;342145;28;921;-76
2022/04/28 00:42:33;;;;;;;316.98;118.78;;;;;;;14.90;66.73;99623.00;342157;28;1267;-76
2022/04/28 00:42:43;;;;;;;319.37;121.17;;;;;;;14.95;66.85;99624.44;342236;28;802;-76
2022/04/28 00:43:18;;;;;;;316.00;120.97;;;;;;;14.98;66.58;99624.25;343529;28;1188;-76
2022/04/28 00:43:28;;;;;;;317.90;121.28;;;;;;;15.08;66.37;99628.97;343302;28;1218;-76
2022/04/28 00:43:51;;;;;;;313.63;119.47;;;;;;;15.08;66.28;99626.34;343168;28;1414;-77
2022/04/28 00:44:02;;;;;;;310.05;117.05;;;;;;;15.07;66.47;99627.28;342391;28;1397;-77
2022/04/28 00:44:13;;;;;;;313.38;119.07;;;;;;;15.08;66.24;99623.72;342601;28;1662;-77
2022/04/28 00:44:23;;;;;;;313.85;121.25;;;;;;;15.09;66.28;99626.25;338972;28;3727;-77
2022/04/28 00:44:34;;;;;;;314.40;124.43;;;;;;;15.13;66.33;99634.84;339376;29;3058;-76
2022/04/28 00:44:46;;;;;;;315.48;124.80;;;;;;;15.12;66.06;99618.16;342141;28;1520;-77
2022/04/28 00:44:56;;;;;;;319.23;126.15;;;;;;;15.10;66.12;99627.09;342043;28;963;-77
2022/04/28 00:45:07;;;;;;;318.38;124.47;;;;;;;15.11;66.20;99626.16;343071;28;2814;-76
2022/04/28 00:45:17;;;;;;;315.92;124.00;;;;;;;15.08;66.23;99628.97;343319;28;1204;-76
2022/04/28 00:45:28;;;;;;;317.60;122.47;;;;;;;15.07;66.04;99622.00;343708;28;821;-76
2022/04/28 00:45:38;;;;;;;317.20;122.25;;;;;;;15.02;66.50;99613.53;344811;28;1283;-76
2022/04/28 00:45:49;;;;;;;315.47;120.60;;;;;;;15.08;66.51;99631.63;343596;28;845;-76
2022/04/28 00:45:59;;;;;;;315.30;120.90;;;;;;;15.07;66.25;99619.38;344688;28;1512;-76
2022/04/28 00:46:10;;;;;;;314.30;119.10;;;;;;;15.14;66.15;99623.34;341839;28;1376;-76
2022/04/28 00:46:20;;;;;;;316.93;119.93;;;;;;;15.16;66.10;99616.19;341882;28;1738;-76
2022/04/28 00:46:31;;;;;;;316.38;118.15;;;;;;;15.20;66.27;99623.81;342805;28;1369;-76
2022/04/28 00:46:43;;;;;;;318.57;121.03;;;;;;;15.22;65.95;99623.72;342125;28;1433;-76
2022/04/28 00:46:53;;;;;;;314.88;121.05;;;;;;;15.24;65.72;99624.47;344957;28;1537;-76
2022/04/28 00:47:04;;;;;;;313.07;123.20;;;;;;;15.23;65.95;99621.00;344833;28;1346;-76
2022/04/28 00:47:15;;;;;;;311.40;122.90;;;;;;;15.19;65.91;99630.00;342226;28;1261;-76
2022/04/28 00:50:38;;;;;;;313.88;124.25;;;;;;;15.19;65.63;99623.91;343517;28;1200;-76
2022/04/28 00:50:39;;;;;;;307.75;118.45;;;;;;;14.95;66.59;99624.44;343606;28;766;-77
2022/04/28 00:50:49;;;;;;;312.42;120.75;;;;;;;14.95;66.71;99627.06;342215;28;1070;-77
2022/04/28 00:51:01;;;;;;;312.47;120.87;;;;;;;14.93;66.64;99625.44;343802;28;1959;-77
2022/04/28 00:51:11;;;;;;;313.65;121.60;;;;;;;14.89;66.60;99619.50;345896;28;1445;-77
2022/04/28 00:51:22;;;;;;;311.85;121.43;;;;;;;14.89;66.61;99624.78;342472;28;1203;-77
2022/04/28 00:51:34;;;;;;;310.83;122.70;;;;;;;14.90;66.64;99621.22;343478;28;1333;-77
2022/04/28 00:51:44;;;;;;;309.77;123.03;;;;;;;14.95;66.70;99627.06;344892;28;1299;-77
2022/04/28 00:51:55;;;;;;;311.77;122.20;;;;;;;14.94;66.78;99622.72;340807;28;1240;-77
2022/04/28 00:52:07;;;;;;;312.47;121.67;;;;;;;14.95;66.65;99629.69;342468;28;1257;-76
2022/04/28 00:52:18;;;;;;;313.02;121.72;;;;;;;14.98;66.67;99629.53;344902;28;1339;-76
2022/04/28 00:52:29;;;;;;;312.63;122.07;;;;;;;14.98;66.53;99623.41;343665;28;651;-76
2022/04/28 00:52:39;;;;;;;313.73;122.88;;;;;;;15.01;66.64;99627.63;343500;28;1418;-76